sensor_id;sensor_type;location;lat;lon;timestamp;P1;durP1;ratioP1;P2;durP2;ratioP2
17153;SDS011;8692;52.164;7.558;2023-12-20T00:01:22;6.20;;;3.03;;
17153;SDS011;8692;52.164;7.558;2023-12-20T00:03:50;7.77;;;2.43;;
17153;SDS011;8692;52.164;7.558;2023-12-20T00:06:18;3.33;;;2.10;;
17153;SDS011;8692;52.164;7.558;2023-12-20T00:08:46;4.20;;;2.87;;
17153;SDS011;8692;52.164;7.558;2023-12-20T00:11:16;6.53;;;2.63;;
17153;SDS011;8692;52.164;7.558;2023-12-20T00:13:44;3.37;;;2.80;;
17153;SDS011;8692;52.164;7.558;2023-12-20T00:16:15;3.63;;;2.47;;
17153;SDS011;8692;52.164;7.558;2023-12-20T00:18:43;8.50;;;2.87;;
17153;SDS011;8692;52.164;7.558;2023-12-20T00:21:11;7.10;;;2.80;;
17153;SDS011;8692;52.164;7.558;2023-12-20T00:23:39;7.10;;;3.57;;
17153;SDS011;8692;52.164;7.558;2023-12-20T00:26:07;7.23;;;3.70;;
17153;SDS011;8692;52.164;7.558;2023-12-20T00:28:36;5.63;;;3.10;;
17153;SDS011;8692;52.164;7.558;2023-12-20T00:31:04;6.63;;;3.60;;
17153;SDS011;8692;52.164;7.558;2023-12-20T00:33:32;7.93;;;3.40;;
17153;SDS011;8692;52.164;7.558;2023-12-20T00:36:01;5.00;;;3.17;;
17153;SDS011;8692;52.164;7.558;2023-12-20T00:38:29;11.13;;;3.60;;
17153;SDS011;8692;52.164;7.558;2023-12-20T00:40:57;7.10;;;3.80;;
17153;SDS011;8692;52.164;7.558;2023-12-20T00:43:25;6.13;;;3.17;;
17153;SDS011;8692;52.164;7.558;2023-12-20T00:45:54;8.40;;;3.43;;
17153;SDS011;8692;52.164;7.558;2023-12-20T00:48:23;10.10;;;3.77;;
17153;SDS011;8692;52.164;7.558;2023-12-20T00:50:53;10.23;;;3.60;;
17153;SDS011;8692;52.164;7.558;2023-12-20T00:53:21;5.63;;;2.57;;
17153;SDS011;8692;52.164;7.558;2023-12-20T00:55:49;10.30;;;4.43;;
17153;SDS011;8692;52.164;7.558;2023-12-20T00:58:17;8.17;;;3.17;;
17153;SDS011;8692;52.164;7.558;2023-12-20T01:00:45;5.97;;;2.97;;
17153;SDS011;8692;52.164;7.558;2023-12-20T01:03:14;10.10;;;3.27;;
17153;SDS011;8692;52.164;7.558;2023-12-20T01:05:42;8.77;;;3.20;;
17153;SDS011;8692;52.164;7.558;2023-12-20T01:08:10;8.60;;;2.90;;
17153;SDS011;8692;52.164;7.558;2023-12-20T01:10:39;10.20;;;3.80;;
17153;SDS011;8692;52.164;7.558;2023-12-20T01:13:07;5.73;;;2.87;;
17153;SDS011;8692;52.164;7.558;2023-12-20T01:15:35;4.73;;;2.60;;
17153;SDS011;8692;52.164;7.558;2023-12-20T01:18:03;10.40;;;3.00;;
17153;SDS011;8692;52.164;7.558;2023-12-20T01:20:33;5.50;;;2.80;;
17153;SDS011;8692;52.164;7.558;2023-12-20T01:23:01;5.23;;;3.00;;
17153;SDS011;8692;52.164;7.558;2023-12-20T01:25:28;10.93;;;2.67;;
17153;SDS011;8692;52.164;7.558;2023-12-20T01:27:56;7.63;;;3.30;;
17153;SDS011;8692;52.164;7.558;2023-12-20T01:30:24;4.87;;;3.07;;
17153;SDS011;8692;52.164;7.558;2023-12-20T01:32:52;4.63;;;2.40;;
17153;SDS011;8692;52.164;7.558;2023-12-20T01:35:20;6.63;;;2.83;;
17153;SDS011;8692;52.164;7.558;2023-12-20T01:37:50;12.03;;;3.40;;
17153;SDS011;8692;52.164;7.558;2023-12-20T01:40:19;7.13;;;2.80;;
17153;SDS011;8692;52.164;7.558;2023-12-20T01:42:47;7.23;;;2.77;;
17153;SDS011;8692;52.164;7.558;2023-12-20T01:45:24;7.70;;;2.67;;
17153;SDS011;8692;52.164;7.558;2023-12-20T01:47:52;8.53;;;3.20;;
17153;SDS011;8692;52.164;7.558;2023-12-20T01:50:21;10.83;;;3.13;;
17153;SDS011;8692;52.164;7.558;2023-12-20T01:52:51;8.23;;;3.23;;
17153;SDS011;8692;52.164;7.558;2023-12-20T01:55:22;6.67;;;2.90;;
17153;SDS011;8692;52.164;7.558;2023-12-20T01:57:50;9.90;;;3.23;;
17153;SDS011;8692;52.164;7.558;2023-12-20T02:00:19;6.87;;;3.17;;
17153;SDS011;8692;52.164;7.558;2023-12-20T02:02:50;6.33;;;3.00;;
17153;SDS011;8692;52.164;7.558;2023-12-20T02:05:20;13.07;;;3.90;;
17153;SDS011;8692;52.164;7.558;2023-12-20T02:07:48;10.80;;;3.83;;
17153;SDS011;8692;52.164;7.558;2023-12-20T02:10:17;8.03;;;3.60;;
17153;SDS011;8692;52.164;7.558;2023-12-20T02:12:45;12.33;;;3.77;;
17153;SDS011;8692;52.164;7.558;2023-12-20T02:15:13;12.17;;;3.47;;
17153;SDS011;8692;52.164;7.558;2023-12-20T02:17:42;6.13;;;4.50;;
17153;SDS011;8692;52.164;7.558;2023-12-20T02:20:11;13.00;;;4.30;;
17153;SDS011;8692;52.164;7.558;2023-12-20T02:22:41;10.17;;;3.60;;
17153;SDS011;8692;52.164;7.558;2023-12-20T02:25:08;9.40;;;3.53;;
17153;SDS011;8692;52.164;7.558;2023-12-20T02:27:37;10.63;;;3.50;;
17153;SDS011;8692;52.164;7.558;2023-12-20T02:30:07;10.37;;;3.33;;
17153;SDS011;8692;52.164;7.558;2023-12-20T02:32:35;11.83;;;4.70;;
17153;SDS011;8692;52.164;7.558;2023-12-20T02:35:04;12.47;;;3.83;;
17153;SDS011;8692;52.164;7.558;2023-12-20T02:37:32;13.07;;;4.47;;
17153;SDS011;8692;52.164;7.558;2023-12-20T02:40:02;13.27;;;4.20;;
17153;SDS011;8692;52.164;7.558;2023-12-20T02:42:31;13.07;;;4.00;;
17153;SDS011;8692;52.164;7.558;2023-12-20T02:44:59;8.87;;;3.60;;
17153;SDS011;8692;52.164;7.558;2023-12-20T02:47:27;13.57;;;3.30;;
17153;SDS011;8692;52.164;7.558;2023-12-20T02:49:56;13.53;;;3.87;;
17153;SDS011;8692;52.164;7.558;2023-12-20T02:52:24;12.73;;;3.73;;
17153;SDS011;8692;52.164;7.558;2023-12-20T02:54:52;12.23;;;3.13;;
17153;SDS011;8692;52.164;7.558;2023-12-20T02:57:22;15.30;;;4.13;;
17153;SDS011;8692;52.164;7.558;2023-12-20T02:59:49;9.23;;;3.17;;
17153;SDS011;8692;52.164;7.558;2023-12-20T03:02:17;6.50;;;2.60;;
17153;SDS011;8692;52.164;7.558;2023-12-20T03:04:45;12.87;;;2.93;;
17153;SDS011;8692;52.164;7.558;2023-12-20T03:07:14;11.37;;;3.87;;
17153;SDS011;8692;52.164;7.558;2023-12-20T03:09:42;10.83;;;2.67;;
17153;SDS011;8692;52.164;7.558;2023-12-20T03:12:31;9.63;;;2.70;;
17153;SDS011;8692;52.164;7.558;2023-12-20T03:14:59;11.37;;;2.60;;
17153;SDS011;8692;52.164;7.558;2023-12-20T03:17:26;16.10;;;2.60;;
17153;SDS011;8692;52.164;7.558;2023-12-20T03:19:54;14.07;;;4.40;;
17153;SDS011;8692;52.164;7.558;2023-12-20T03:22:22;8.90;;;2.20;;
17153;SDS011;8692;52.164;7.558;2023-12-20T03:24:50;13.73;;;2.30;;
17153;SDS011;8692;52.164;7.558;2023-12-20T03:27:18;15.23;;;2.30;;
17153;SDS011;8692;52.164;7.558;2023-12-20T03:29:47;12.93;;;2.43;;
17153;SDS011;8692;52.164;7.558;2023-12-20T03:32:15;7.57;;;2.40;;
17153;SDS011;8692;52.164;7.558;2023-12-20T03:34:43;11.83;;;2.50;;
17153;SDS011;8692;52.164;7.558;2023-12-20T03:37:11;9.90;;;2.80;;
17153;SDS011;8692;52.164;7.558;2023-12-20T03:39:41;13.20;;;3.03;;
17153;SDS011;8692;52.164;7.558;2023-12-20T03:42:09;6.53;;;2.40;;
17153;SDS011;8692;52.164;7.558;2023-12-20T03:44:38;9.33;;;2.53;;
17153;SDS011;8692;52.164;7.558;2023-12-20T03:47:07;13.40;;;2.83;;
17153;SDS011;8692;52.164;7.558;2023-12-20T03:49:35;11.33;;;2.53;;
17153;SDS011;8692;52.164;7.558;2023-12-20T03:52:05;15.50;;;2.87;;
17153;SDS011;8692;52.164;7.558;2023-12-20T03:54:33;12.73;;;2.50;;
17153;SDS011;8692;52.164;7.558;2023-12-20T03:57:02;14.20;;;2.60;;
17153;SDS011;8692;52.164;7.558;2023-12-20T03:59:30;14.43;;;2.87;;
17153;SDS011;8692;52.164;7.558;2023-12-20T04:02:02;22.07;;;3.47;;
17153;SDS011;8692;52.164;7.558;2023-12-20T04:04:32;12.73;;;2.60;;
17153;SDS011;8692;52.164;7.558;2023-12-20T04:07:00;11.13;;;2.77;;
17153;SDS011;8692;52.164;7.558;2023-12-20T04:09:28;13.33;;;2.97;;
17153;SDS011;8692;52.164;7.558;2023-12-20T04:11:56;13.83;;;2.50;;
17153;SDS011;8692;52.164;7.558;2023-12-20T04:14:24;12.67;;;3.07;;
17153;SDS011;8692;52.164;7.558;2023-12-20T04:16:52;10.30;;;3.10;;
17153;SDS011;8692;52.164;7.558;2023-12-20T04:19:21;10.60;;;3.13;;
17153;SDS011;8692;52.164;7.558;2023-12-20T04:21:50;13.90;;;2.57;;
17153;SDS011;8692;52.164;7.558;2023-12-20T04:24:18;12.93;;;2.67;;
17153;SDS011;8692;52.164;7.558;2023-12-20T04:26:46;9.73;;;2.37;;
17153;SDS011;8692;52.164;7.558;2023-12-20T04:29:14;13.07;;;2.57;;
17153;SDS011;8692;52.164;7.558;2023-12-20T04:31:42;12.07;;;2.60;;
17153;SDS011;8692;52.164;7.558;2023-12-20T04:34:10;12.43;;;2.93;;
17153;SDS011;8692;52.164;7.558;2023-12-20T04:36:38;12.80;;;2.37;;
17153;SDS011;8692;52.164;7.558;2023-12-20T04:39:07;17.03;;;2.87;;
17153;SDS011;8692;52.164;7.558;2023-12-20T04:41:35;10.17;;;3.10;;
17153;SDS011;8692;52.164;7.558;2023-12-20T04:44:03;24.10;;;3.40;;
17153;SDS011;8692;52.164;7.558;2023-12-20T04:46:32;16.17;;;3.60;;
17153;SDS011;8692;52.164;7.558;2023-12-20T04:49:00;8.27;;;2.73;;
17153;SDS011;8692;52.164;7.558;2023-12-20T04:51:28;12.33;;;2.80;;
17153;SDS011;8692;52.164;7.558;2023-12-20T04:53:56;13.97;;;3.00;;
17153;SDS011;8692;52.164;7.558;2023-12-20T04:56:25;19.07;;;5.43;;
17153;SDS011;8692;52.164;7.558;2023-12-20T04:58:53;14.87;;;3.00;;
17153;SDS011;8692;52.164;7.558;2023-12-20T05:01:21;15.60;;;4.13;;
17153;SDS011;8692;52.164;7.558;2023-12-20T05:03:49;10.40;;;3.40;;
17153;SDS011;8692;52.164;7.558;2023-12-20T05:06:17;9.93;;;3.43;;
17153;SDS011;8692;52.164;7.558;2023-12-20T05:08:45;17.30;;;3.40;;
17153;SDS011;8692;52.164;7.558;2023-12-20T05:11:13;12.00;;;3.00;;
17153;SDS011;8692;52.164;7.558;2023-12-20T05:13:43;15.20;;;3.77;;
17153;SDS011;8692;52.164;7.558;2023-12-20T05:16:16;21.00;;;6.10;;
17153;SDS011;8692;52.164;7.558;2023-12-20T05:18:46;11.90;;;3.50;;
17153;SDS011;8692;52.164;7.558;2023-12-20T05:21:16;11.27;;;3.00;;
17153;SDS011;8692;52.164;7.558;2023-12-20T05:23:43;13.60;;;3.67;;
17153;SDS011;8692;52.164;7.558;2023-12-20T05:26:12;11.90;;;3.33;;
17153;SDS011;8692;52.164;7.558;2023-12-20T05:28:40;15.07;;;4.63;;
17153;SDS011;8692;52.164;7.558;2023-12-20T05:31:09;12.87;;;3.50;;
17153;SDS011;8692;52.164;7.558;2023-12-20T05:33:37;19.47;;;5.30;;
17153;SDS011;8692;52.164;7.558;2023-12-20T05:36:06;16.67;;;4.13;;
17153;SDS011;8692;52.164;7.558;2023-12-20T05:38:37;15.53;;;3.80;;
17153;SDS011;8692;52.164;7.558;2023-12-20T05:41:05;12.83;;;3.40;;
17153;SDS011;8692;52.164;7.558;2023-12-20T05:43:33;17.17;;;3.40;;
17153;SDS011;8692;52.164;7.558;2023-12-20T05:46:01;14.73;;;4.20;;
17153;SDS011;8692;52.164;7.558;2023-12-20T05:48:30;13.13;;;4.30;;
17153;SDS011;8692;52.164;7.558;2023-12-20T05:50:59;12.13;;;3.47;;
17153;SDS011;8692;52.164;7.558;2023-12-20T05:53:26;11.13;;;3.30;;
17153;SDS011;8692;52.164;7.558;2023-12-20T05:55:54;16.73;;;5.70;;
17153;SDS011;8692;52.164;7.558;2023-12-20T05:58:22;15.20;;;3.90;;
17153;SDS011;8692;52.164;7.558;2023-12-20T06:00:50;15.07;;;3.77;;
17153;SDS011;8692;52.164;7.558;2023-12-20T06:03:18;18.43;;;4.63;;
17153;SDS011;8692;52.164;7.558;2023-12-20T06:05:48;17.23;;;3.73;;
17153;SDS011;8692;52.164;7.558;2023-12-20T06:08:18;11.90;;;4.70;;
17153;SDS011;8692;52.164;7.558;2023-12-20T06:10:46;14.60;;;4.77;;
17153;SDS011;8692;52.164;7.558;2023-12-20T06:13:14;14.07;;;4.23;;
17153;SDS011;8692;52.164;7.558;2023-12-20T06:15:42;12.80;;;3.63;;
17153;SDS011;8692;52.164;7.558;2023-12-20T06:18:10;14.50;;;3.70;;
17153;SDS011;8692;52.164;7.558;2023-12-20T06:20:38;14.60;;;3.83;;
17153;SDS011;8692;52.164;7.558;2023-12-20T06:23:07;11.70;;;3.53;;
17153;SDS011;8692;52.164;7.558;2023-12-20T06:25:35;11.93;;;3.10;;
17153;SDS011;8692;52.164;7.558;2023-12-20T06:28:04;16.23;;;5.35;;
17153;SDS011;8692;52.164;7.558;2023-12-20T06:30:32;18.98;;;4.97;;
17153;SDS011;8692;52.164;7.558;2023-12-20T06:33:00;13.20;;;3.63;;
17153;SDS011;8692;52.164;7.558;2023-12-20T06:35:28;17.77;;;3.90;;
17153;SDS011;8692;52.164;7.558;2023-12-20T06:38:00;17.97;;;3.43;;
17153;SDS011;8692;52.164;7.558;2023-12-20T06:40:29;14.10;;;3.47;;
17153;SDS011;8692;52.164;7.558;2023-12-20T06:42:57;10.63;;;3.30;;
17153;SDS011;8692;52.164;7.558;2023-12-20T06:45:37;8.90;;;2.67;;
17153;SDS011;8692;52.164;7.558;2023-12-20T06:48:06;12.70;;;4.57;;
17153;SDS011;8692;52.164;7.558;2023-12-20T06:50:34;10.87;;;3.97;;
17153;SDS011;8692;52.164;7.558;2023-12-20T06:53:06;11.67;;;2.60;;
17153;SDS011;8692;52.164;7.558;2023-12-20T06:55:35;14.97;;;3.27;;
17153;SDS011;8692;52.164;7.558;2023-12-20T06:58:04;15.00;;;3.27;;
17153;SDS011;8692;52.164;7.558;2023-12-20T07:00:32;17.97;;;3.03;;
17153;SDS011;8692;52.164;7.558;2023-12-20T07:03:01;11.13;;;3.13;;
17153;SDS011;8692;52.164;7.558;2023-12-20T07:05:29;10.73;;;2.73;;
17153;SDS011;8692;52.164;7.558;2023-12-20T07:07:57;10.07;;;3.03;;
17153;SDS011;8692;52.164;7.558;2023-12-20T07:10:25;20.80;;;3.27;;
17153;SDS011;8692;52.164;7.558;2023-12-20T07:12:54;15.93;;;2.67;;
17153;SDS011;8692;52.164;7.558;2023-12-20T07:15:22;17.53;;;3.13;;
17153;SDS011;8692;52.164;7.558;2023-12-20T07:17:52;8.03;;;2.63;;
17153;SDS011;8692;52.164;7.558;2023-12-20T07:20:20;13.67;;;2.67;;
17153;SDS011;8692;52.164;7.558;2023-12-20T07:22:49;12.37;;;3.53;;
17153;SDS011;8692;52.164;7.558;2023-12-20T07:25:17;14.47;;;3.00;;
17153;SDS011;8692;52.164;7.558;2023-12-20T07:27:46;14.27;;;3.33;;
17153;SDS011;8692;52.164;7.558;2023-12-20T07:30:16;16.67;;;4.10;;
17153;SDS011;8692;52.164;7.558;2023-12-20T07:32:44;14.03;;;3.23;;
17153;SDS011;8692;52.164;7.558;2023-12-20T07:35:14;18.87;;;5.80;;
17153;SDS011;8692;52.164;7.558;2023-12-20T07:37:43;16.93;;;3.10;;
17153;SDS011;8692;52.164;7.558;2023-12-20T07:40:11;13.53;;;3.17;;
17153;SDS011;8692;52.164;7.558;2023-12-20T07:42:40;16.30;;;4.10;;
17153;SDS011;8692;52.164;7.558;2023-12-20T07:45:08;13.77;;;2.20;;
17153;SDS011;8692;52.164;7.558;2023-12-20T07:47:38;13.27;;;3.67;;
17153;SDS011;8692;52.164;7.558;2023-12-20T07:50:07;14.40;;;3.00;;
17153;SDS011;8692;52.164;7.558;2023-12-20T07:52:35;14.07;;;3.20;;
17153;SDS011;8692;52.164;7.558;2023-12-20T07:55:03;15.00;;;3.17;;
17153;SDS011;8692;52.164;7.558;2023-12-20T07:57:32;13.20;;;2.90;;
17153;SDS011;8692;52.164;7.558;2023-12-20T08:00:00;13.57;;;2.93;;
17153;SDS011;8692;52.164;7.558;2023-12-20T08:02:29;13.77;;;3.60;;
17153;SDS011;8692;52.164;7.558;2023-12-20T08:05:00;13.00;;;4.27;;
17153;SDS011;8692;52.164;7.558;2023-12-20T08:07:28;20.97;;;3.77;;
17153;SDS011;8692;52.164;7.558;2023-12-20T08:09:56;10.20;;;3.63;;
17153;SDS011;8692;52.164;7.558;2023-12-20T08:12:24;16.57;;;3.40;;
17153;SDS011;8692;52.164;7.558;2023-12-20T08:14:54;13.83;;;2.90;;
17153;SDS011;8692;52.164;7.558;2023-12-20T08:17:23;13.27;;;3.37;;
17153;SDS011;8692;52.164;7.558;2023-12-20T08:19:51;13.53;;;3.57;;
17153;SDS011;8692;52.164;7.558;2023-12-20T08:22:21;17.73;;;5.57;;
17153;SDS011;8692;52.164;7.558;2023-12-20T08:24:49;13.63;;;3.87;;
17153;SDS011;8692;52.164;7.558;2023-12-20T08:27:17;11.97;;;3.70;;
17153;SDS011;8692;52.164;7.558;2023-12-20T08:29:45;12.03;;;3.67;;
17153;SDS011;8692;52.164;7.558;2023-12-20T08:32:13;14.87;;;3.80;;
17153;SDS011;8692;52.164;7.558;2023-12-20T08:34:41;21.63;;;4.57;;
17153;SDS011;8692;52.164;7.558;2023-12-20T08:37:09;11.93;;;3.40;;
17153;SDS011;8692;52.164;7.558;2023-12-20T08:39:38;14.27;;;3.77;;
17153;SDS011;8692;52.164;7.558;2023-12-20T08:42:10;17.67;;;3.70;;
17153;SDS011;8692;52.164;7.558;2023-12-20T08:44:38;14.03;;;3.40;;
17153;SDS011;8692;52.164;7.558;2023-12-20T08:47:06;21.73;;;5.13;;
17153;SDS011;8692;52.164;7.558;2023-12-20T08:49:34;14.60;;;3.40;;
17153;SDS011;8692;52.164;7.558;2023-12-20T08:52:02;12.47;;;3.73;;
17153;SDS011;8692;52.164;7.558;2023-12-20T08:54:30;11.17;;;3.93;;
17153;SDS011;8692;52.164;7.558;2023-12-20T08:57:00;23.03;;;4.87;;
17153;SDS011;8692;52.164;7.558;2023-12-20T08:59:28;16.17;;;3.63;;
17153;SDS011;8692;52.164;7.558;2023-12-20T09:01:56;15.97;;;3.80;;
17153;SDS011;8692;52.164;7.558;2023-12-20T09:04:24;18.67;;;4.00;;
17153;SDS011;8692;52.164;7.558;2023-12-20T09:06:53;12.00;;;4.13;;
17153;SDS011;8692;52.164;7.558;2023-12-20T09:09:21;17.83;;;4.23;;
17153;SDS011;8692;52.164;7.558;2023-12-20T09:11:49;12.27;;;3.80;;
17153;SDS011;8692;52.164;7.558;2023-12-20T09:14:20;17.57;;;4.17;;
17153;SDS011;8692;52.164;7.558;2023-12-20T09:16:48;15.90;;;3.70;;
17153;SDS011;8692;52.164;7.558;2023-12-20T09:19:17;14.20;;;3.80;;
17153;SDS011;8692;52.164;7.558;2023-12-20T09:21:45;10.80;;;4.63;;
17153;SDS011;8692;52.164;7.558;2023-12-20T09:24:13;17.93;;;5.00;;
17153;SDS011;8692;52.164;7.558;2023-12-20T09:26:41;13.17;;;4.87;;
17153;SDS011;8692;52.164;7.558;2023-12-20T09:29:10;15.17;;;4.47;;
17153;SDS011;8692;52.164;7.558;2023-12-20T09:31:42;17.53;;;4.57;;
17153;SDS011;8692;52.164;7.558;2023-12-20T09:34:14;21.97;;;4.33;;
17153;SDS011;8692;52.164;7.558;2023-12-20T09:36:43;14.73;;;4.23;;
17153;SDS011;8692;52.164;7.558;2023-12-20T09:39:13;15.43;;;4.03;;
17153;SDS011;8692;52.164;7.558;2023-12-20T09:41:42;14.63;;;4.70;;
17153;SDS011;8692;52.164;7.558;2023-12-20T09:44:13;14.57;;;3.90;;
17153;SDS011;8692;52.164;7.558;2023-12-20T09:46:49;13.93;;;4.07;;
17153;SDS011;8692;52.164;7.558;2023-12-20T09:49:18;19.77;;;4.20;;
17153;SDS011;8692;52.164;7.558;2023-12-20T09:51:47;17.47;;;3.57;;
17153;SDS011;8692;52.164;7.558;2023-12-20T09:54:15;18.03;;;4.57;;
17153;SDS011;8692;52.164;7.558;2023-12-20T09:56:44;13.20;;;4.27;;
17153;SDS011;8692;52.164;7.558;2023-12-20T09:59:13;14.97;;;4.00;;
17153;SDS011;8692;52.164;7.558;2023-12-20T10:01:42;13.33;;;3.63;;
17153;SDS011;8692;52.164;7.558;2023-12-20T10:04:12;16.03;;;5.13;;
17153;SDS011;8692;52.164;7.558;2023-12-20T10:06:55;10.50;;;3.60;;
17153;SDS011;8692;52.164;7.558;2023-12-20T10:09:24;13.63;;;3.50;;
17153;SDS011;8692;52.164;7.558;2023-12-20T10:11:54;13.67;;;3.50;;
17153;SDS011;8692;52.164;7.558;2023-12-20T10:14:22;10.50;;;3.67;;
17153;SDS011;8692;52.164;7.558;2023-12-20T10:16:51;14.93;;;4.80;;
17153;SDS011;8692;52.164;7.558;2023-12-20T10:19:21;13.93;;;3.57;;
17153;SDS011;8692;52.164;7.558;2023-12-20T10:21:49;11.50;;;3.40;;
17153;SDS011;8692;52.164;7.558;2023-12-20T10:24:17;9.73;;;4.53;;
17153;SDS011;8692;52.164;7.558;2023-12-20T10:26:45;12.83;;;3.70;;
17153;SDS011;8692;52.164;7.558;2023-12-20T10:29:13;11.57;;;3.30;;
17153;SDS011;8692;52.164;7.558;2023-12-20T10:31:41;12.97;;;3.63;;
17153;SDS011;8692;52.164;7.558;2023-12-20T10:34:11;14.20;;;3.80;;
17153;SDS011;8692;52.164;7.558;2023-12-20T10:36:40;14.90;;;3.70;;
17153;SDS011;8692;52.164;7.558;2023-12-20T10:39:08;14.07;;;4.23;;
17153;SDS011;8692;52.164;7.558;2023-12-20T10:41:38;9.37;;;4.77;;
17153;SDS011;8692;52.164;7.558;2023-12-20T10:44:08;9.33;;;3.13;;
17153;SDS011;8692;52.164;7.558;2023-12-20T10:46:37;12.67;;;3.97;;
17153;SDS011;8692;52.164;7.558;2023-12-20T10:49:07;12.83;;;3.30;;
17153;SDS011;8692;52.164;7.558;2023-12-20T10:51:37;12.63;;;3.63;;
17153;SDS011;8692;52.164;7.558;2023-12-20T10:54:07;10.23;;;3.27;;
17153;SDS011;8692;52.164;7.558;2023-12-20T10:56:35;9.33;;;3.27;;
17153;SDS011;8692;52.164;7.558;2023-12-20T10:59:05;11.80;;;3.77;;
17153;SDS011;8692;52.164;7.558;2023-12-20T11:01:37;12.70;;;3.27;;
17153;SDS011;8692;52.164;7.558;2023-12-20T11:04:08;12.20;;;3.07;;
17153;SDS011;8692;52.164;7.558;2023-12-20T11:06:43;9.57;;;3.10;;
17153;SDS011;8692;52.164;7.558;2023-12-20T11:09:19;8.53;;;2.80;;
17153;SDS011;8692;52.164;7.558;2023-12-20T11:11:59;15.73;;;3.90;;
17153;SDS011;8692;52.164;7.558;2023-12-20T11:14:33;10.17;;;3.03;;
17153;SDS011;8692;52.164;7.558;2023-12-20T11:17:07;9.77;;;3.40;;
17153;SDS011;8692;52.164;7.558;2023-12-20T11:19:36;13.70;;;3.13;;
17153;SDS011;8692;52.164;7.558;2023-12-20T11:22:05;7.70;;;3.13;;
17153;SDS011;8692;52.164;7.558;2023-12-20T11:24:35;10.43;;;3.03;;
17153;SDS011;8692;52.164;7.558;2023-12-20T11:27:04;7.37;;;2.80;;
17153;SDS011;8692;52.164;7.558;2023-12-20T11:29:32;12.20;;;2.90;;
17153;SDS011;8692;52.164;7.558;2023-12-20T11:32:02;8.10;;;2.57;;
17153;SDS011;8692;52.164;7.558;2023-12-20T11:34:33;10.93;;;2.53;;
17153;SDS011;8692;52.164;7.558;2023-12-20T11:37:03;9.30;;;2.93;;
17153;SDS011;8692;52.164;7.558;2023-12-20T11:39:31;13.53;;;3.47;;
17153;SDS011;8692;52.164;7.558;2023-12-20T11:42:05;12.40;;;3.43;;
17153;SDS011;8692;52.164;7.558;2023-12-20T11:44:34;14.90;;;3.43;;
17153;SDS011;8692;52.164;7.558;2023-12-20T11:47:04;12.07;;;2.90;;
17153;SDS011;8692;52.164;7.558;2023-12-20T11:49:32;9.00;;;4.10;;
17153;SDS011;8692;52.164;7.558;2023-12-20T11:52:00;9.40;;;3.10;;
17153;SDS011;8692;52.164;7.558;2023-12-20T11:54:29;8.23;;;2.93;;
17153;SDS011;8692;52.164;7.558;2023-12-20T11:56:57;10.23;;;4.00;;
17153;SDS011;8692;52.164;7.558;2023-12-20T11:59:27;14.27;;;3.27;;
17153;SDS011;8692;52.164;7.558;2023-12-20T12:01:55;14.37;;;3.43;;
17153;SDS011;8692;52.164;7.558;2023-12-20T12:04:27;14.23;;;3.90;;
17153;SDS011;8692;52.164;7.558;2023-12-20T12:06:56;10.37;;;3.53;;
17153;SDS011;8692;52.164;7.558;2023-12-20T12:09:24;14.80;;;3.80;;
17153;SDS011;8692;52.164;7.558;2023-12-20T12:11:51;12.90;;;3.53;;
17153;SDS011;8692;52.164;7.558;2023-12-20T12:14:20;15.33;;;3.40;;
17153;SDS011;8692;52.164;7.558;2023-12-20T12:16:49;10.50;;;3.77;;
17153;SDS011;8692;52.164;7.558;2023-12-20T12:19:20;7.13;;;2.10;;
17153;SDS011;8692;52.164;7.558;2023-12-20T12:21:48;5.00;;;1.63;;
17153;SDS011;8692;52.164;7.558;2023-12-20T12:24:19;5.27;;;1.10;;
17153;SDS011;8692;52.164;7.558;2023-12-20T12:26:51;6.00;;;1.20;;
17153;SDS011;8692;52.164;7.558;2023-12-20T12:29:19;4.97;;;1.00;;
17153;SDS011;8692;52.164;7.558;2023-12-20T12:31:49;2.33;;;1.13;;
17153;SDS011;8692;52.164;7.558;2023-12-20T12:34:17;2.53;;;1.07;;
17153;SDS011;8692;52.164;7.558;2023-12-20T12:36:45;4.50;;;1.47;;
17153;SDS011;8692;52.164;7.558;2023-12-20T12:39:14;4.07;;;1.37;;
17153;SDS011;8692;52.164;7.558;2023-12-20T12:41:44;3.00;;;1.20;;
17153;SDS011;8692;52.164;7.558;2023-12-20T12:44:12;4.63;;;1.33;;
17153;SDS011;8692;52.164;7.558;2023-12-20T12:46:43;5.07;;;1.30;;
17153;SDS011;8692;52.164;7.558;2023-12-20T12:49:13;4.97;;;1.30;;
17153;SDS011;8692;52.164;7.558;2023-12-20T12:51:41;6.40;;;1.37;;
17153;SDS011;8692;52.164;7.558;2023-12-20T12:54:10;2.63;;;0.90;;
17153;SDS011;8692;52.164;7.558;2023-12-20T12:56:39;4.33;;;1.20;;
17153;SDS011;8692;52.164;7.558;2023-12-20T12:59:07;4.33;;;1.80;;
17153;SDS011;8692;52.164;7.558;2023-12-20T13:01:35;4.77;;;1.43;;
17153;SDS011;8692;52.164;7.558;2023-12-20T13:04:05;3.23;;;1.17;;
17153;SDS011;8692;52.164;7.558;2023-12-20T13:06:39;4.43;;;1.30;;
17153;SDS011;8692;52.164;7.558;2023-12-20T13:09:08;3.53;;;1.03;;
17153;SDS011;8692;52.164;7.558;2023-12-20T13:11:36;3.10;;;0.90;;
17153;SDS011;8692;52.164;7.558;2023-12-20T13:14:04;1.90;;;1.00;;
17153;SDS011;8692;52.164;7.558;2023-12-20T13:16:36;7.27;;;1.60;;
17153;SDS011;8692;52.164;7.558;2023-12-20T13:19:04;4.60;;;1.50;;
17153;SDS011;8692;52.164;7.558;2023-12-20T13:21:33;3.70;;;1.13;;
17153;SDS011;8692;52.164;7.558;2023-12-20T13:24:02;6.43;;;1.60;;
17153;SDS011;8692;52.164;7.558;2023-12-20T13:26:30;4.73;;;1.33;;
17153;SDS011;8692;52.164;7.558;2023-12-20T13:28:59;5.00;;;1.40;;
17153;SDS011;8692;52.164;7.558;2023-12-20T13:31:27;4.63;;;1.30;;
17153;SDS011;8692;52.164;7.558;2023-12-20T13:33:55;3.77;;;1.30;;
17153;SDS011;8692;52.164;7.558;2023-12-20T13:36:23;4.70;;;1.50;;
17153;SDS011;8692;52.164;7.558;2023-12-20T13:38:52;5.40;;;1.30;;
17153;SDS011;8692;52.164;7.558;2023-12-20T13:41:22;3.60;;;1.27;;
17153;SDS011;8692;52.164;7.558;2023-12-20T13:43:50;7.17;;;1.30;;
17153;SDS011;8692;52.164;7.558;2023-12-20T13:46:18;2.73;;;1.20;;
17153;SDS011;8692;52.164;7.558;2023-12-20T13:48:46;7.97;;;1.40;;
17153;SDS011;8692;52.164;7.558;2023-12-20T13:51:14;5.47;;;1.63;;
17153;SDS011;8692;52.164;7.558;2023-12-20T13:53:41;6.47;;;1.60;;
17153;SDS011;8692;52.164;7.558;2023-12-20T13:56:09;6.20;;;1.93;;
17153;SDS011;8692;52.164;7.558;2023-12-20T13:58:39;5.90;;;1.80;;
17153;SDS011;8692;52.164;7.558;2023-12-20T14:01:08;5.17;;;1.97;;
17153;SDS011;8692;52.164;7.558;2023-12-20T14:03:39;6.30;;;1.60;;
17153;SDS011;8692;52.164;7.558;2023-12-20T14:06:07;5.10;;;1.70;;
17153;SDS011;8692;52.164;7.558;2023-12-20T14:08:35;6.27;;;1.40;;
17153;SDS011;8692;52.164;7.558;2023-12-20T14:11:03;3.73;;;1.70;;
17153;SDS011;8692;52.164;7.558;2023-12-20T14:13:31;9.37;;;1.70;;
17153;SDS011;8692;52.164;7.558;2023-12-20T14:16:01;6.87;;;1.60;;
17153;SDS011;8692;52.164;7.558;2023-12-20T14:18:30;4.40;;;1.60;;
17153;SDS011;8692;52.164;7.558;2023-12-20T14:20:58;6.40;;;2.10;;
17153;SDS011;8692;52.164;7.558;2023-12-20T14:23:26;4.07;;;1.80;;
17153;SDS011;8692;52.164;7.558;2023-12-20T14:25:54;5.63;;;1.90;;
17153;SDS011;8692;52.164;7.558;2023-12-20T14:28:22;8.67;;;2.17;;
17153;SDS011;8692;52.164;7.558;2023-12-20T14:30:50;7.23;;;2.23;;
17153;SDS011;8692;52.164;7.558;2023-12-20T14:33:20;8.23;;;2.47;;
17153;SDS011;8692;52.164;7.558;2023-12-20T14:35:48;8.67;;;2.23;;
17153;SDS011;8692;52.164;7.558;2023-12-20T14:38:16;8.87;;;2.30;;
17153;SDS011;8692;52.164;7.558;2023-12-20T14:40:45;9.97;;;2.50;;
17153;SDS011;8692;52.164;7.558;2023-12-20T14:43:13;5.60;;;2.67;;
17153;SDS011;8692;52.164;7.558;2023-12-20T14:45:42;9.07;;;2.33;;
17153;SDS011;8692;52.164;7.558;2023-12-20T14:48:10;9.50;;;3.03;;
17153;SDS011;8692;52.164;7.558;2023-12-20T14:50:40;8.30;;;2.70;;
17153;SDS011;8692;52.164;7.558;2023-12-20T14:53:08;7.20;;;3.70;;
17153;SDS011;8692;52.164;7.558;2023-12-20T14:55:36;7.90;;;2.90;;
17153;SDS011;8692;52.164;7.558;2023-12-20T14:58:05;8.37;;;3.40;;
17153;SDS011;8692;52.164;7.558;2023-12-20T15:00:33;10.20;;;3.07;;
17153;SDS011;8692;52.164;7.558;2023-12-20T15:03:01;8.03;;;3.43;;